Time;durP1;ratioP1;P1;durP2;ratioP2;P2;SDS_P1;SDS_P2;PMS_P1;PMS_P2;Temp;Humidity;BMP_temperature;BMP_pressure;BME280_temperature;BME280_humidity;BME280_pressure;Samples;Min_cycle;Max_cycle;Signal;HPM_P1;HPM_P2
2022/09/07 00:01:15;;;;;;;5.00;0.80;;;;;;;15.27;37.53;101327.09;117126;1189;23715;-57
2022/09/07 00:03:42;;;;;;;8.60;1.00;;;;;;;15.16;37.56;101326.40;117207;1188;22922;-64
2022/09/07 00:06:10;;;;;;;4.20;0.70;;;;;;;15.07;37.62;101319.80;117410;1182;24169;-57
2022/09/07 00:08:37;;;;;;;1.30;0.70;;;;;;;15.04;37.69;101320.39;117191;1186;23447;-64
2022/09/07 00:11:06;;;;;;;3.30;1.20;;;;;;;15.00;37.65;101323.45;117163;1186;22946;-57
2022/09/07 00:13:34;;;;;;;5.90;0.80;;;;;;;14.98;37.70;101319.95;117300;1184;23453;-57
2022/09/07 00:16:08;;;;;;;2.20;1.00;;;;;;;14.96;37.84;101321.58;117347;1186;22179;-64
2022/09/07 00:18:35;;;;;;;3.30;0.90;;;;;;;14.93;37.79;101321.80;117211;1185;21856;-57
2022/09/07 00:21:07;;;;;;;5.40;1.00;;;;;;;14.89;37.83;101318.33;117258;1181;23692;-63
2022/09/07 00:23:35;;;;;;;4.40;1.00;;;;;;;14.86;37.87;101317.30;117352;1183;23598;-57
2022/09/07 00:26:07;;;;;;;2.40;0.90;;;;;;;14.85;37.90;101314.67;117362;1186;22917;-57
2022/09/07 00:28:35;;;;;;;3.70;0.80;;;;;;;14.86;37.80;101316.77;117095;1183;22812;-64
2022/09/07 00:31:04;;;;;;;2.80;0.80;;;;;;;14.84;37.76;101321.58;117224;1185;21866;-64
2022/09/07 00:33:31;;;;;;;3.10;0.90;;;;;;;14.77;37.96;101318.86;117236;1187;21845;-58
2022/09/07 00:35:58;;;;;;;4.20;0.90;;;;;;;14.66;38.04;101312.45;117172;1186;23544;-57
2022/09/07 00:38:25;;;;;;;2.60;0.80;;;;;;;14.59;38.11;101312.71;117218;1187;21896;-57
2022/09/07 00:40:52;;;;;;;2.20;0.70;;;;;;;14.52;38.21;101314.75;117272;1186;21863;-57
2022/09/07 00:43:40;;;;;;;3.40;0.90;;;;;;;14.44;38.27;101310.80;117331;1185;22929;-64
2022/09/07 00:46:12;;;;;;;3.50;0.80;;;;;;;14.33;38.41;101305.13;117393;1186;23546;-59
2022/09/07 00:48:45;;;;;;;2.10;0.90;;;;;;;14.25;38.69;101299.23;117203;1188;21843;-64
2022/09/07 00:51:16;;;;;;;5.00;1.30;;;;;;;14.17;38.50;101298.09;117314;1189;24267;-57
2022/09/07 00:53:47;;;;;;;;;;;;;;;14.09;38.64;101306.14;117254;1189;22118;-57
2022/09/07 00:56:14;;;;;;;3.90;0.90;;;;;;;14.01;38.74;101309.23;117038;1187;23470;-57
2022/09/07 00:58:41;;;;;;;4.10;1.10;;;;;;;13.94;38.88;101298.72;116956;1188;23376;-64
2022/09/07 01:01:09;;;;;;;1.60;0.80;;;;;;;13.87;38.87;101297.22;117270;1188;22928;-57
2022/09/07 01:03:40;;;;;;;2.90;1.00;;;;;;;13.79;39.11;101301.88;117321;1186;21852;-64
2022/09/07 01:06:18;;;;;;;2.80;1.00;;;;;;;13.73;39.16;101300.02;117321;1186;21860;-57
2022/09/07 01:08:47;;;;;;;2.60;1.00;;;;;;;13.65;39.38;101297.98;117283;1185;22926;-56
2022/09/07 01:11:14;;;;;;;2.00;0.90;;;;;;;13.60;39.24;101298.73;117182;1181;23556;-59
2022/09/07 01:13:42;;;;;;;3.00;0.80;;;;;;;13.53;39.20;101304.98;117164;1186;22121;-56
2022/09/07 01:16:35;;;;;;;2.50;0.80;;;;;;;13.40;39.32;101301.55;117106;1184;23471;-63
2022/09/07 01:19:05;;;;;;;1.70;0.90;;;;;;;13.29;39.43;101296.52;117245;1186;23640;-64
2022/09/07 01:21:51;;;;;;;2.00;1.00;;;;;;;13.26;39.51;101300.95;117337;1186;23033;-56
2022/09/07 01:24:21;;;;;;;4.70;0.90;;;;;;;13.21;39.64;101302.59;117225;1184;22924;-57
2022/09/07 01:27:20;;;;;;;3.60;1.30;;;;;;;13.16;39.67;101296.81;117308;1186;21949;-63
2022/09/07 01:29:59;;;;;;;2.00;1.10;;;;;;;13.11;39.74;101295.80;117148;1185;22968;-56
2022/09/07 01:32:48;;;;;;;6.10;1.10;;;;;;;13.06;39.80;101295.12;117054;1188;24164;-63
2022/09/07 01:35:53;;;;;;;1.90;0.60;;;;;;;12.99;39.62;101298.36;117150;1186;22928;-63
2022/09/07 01:38:43;;;;;;;1.50;0.70;;;;;;;12.85;39.54;101293.52;117088;1184;23457;-62
2022/09/07 01:41:21;;;;;;;4.20;1.10;;;;;;;12.77;39.73;101291.66;116927;1189;22923;-56
2022/09/07 01:43:59;;;;;;;2.40;0.90;;;;;;;12.69;39.99;101293.45;117027;1186;23462;-65
2022/09/07 01:46:28;;;;;;;2.90;0.90;;;;;;;12.62;39.86;101289.80;117095;1186;23015;-59
2022/09/07 01:49:35;;;;;;;2.90;1.10;;;;;;;12.56;39.78;101286.49;117134;1184;21858;-66
2022/09/07 01:52:13;;;;;;;1.80;0.90;;;;;;;12.48;40.23;101289.00;116942;1189;21867;-59
2022/09/07 01:54:45;;;;;;;1.60;0.80;;;;;;;12.35;39.90;101289.25;117303;1186;23485;-66
2022/09/07 01:57:20;;;;;;;4.80;1.00;;;;;;;12.20;40.34;101286.67;117136;1186;22180;-66
2022/09/07 01:59:51;;;;;;;3.20;1.00;;;;;;;12.12;40.59;101286.90;117177;1186;21842;-65
2022/09/07 02:02:20;;;;;;;2.90;1.00;;;;;;;12.06;40.62;101286.21;117119;1186;22940;-65
2022/09/07 02:05:03;;;;;;;3.30;1.30;;;;;;;11.97;40.70;101291.14;116985;1189;21856;-60
2022/09/07 02:07:45;;;;;;;5.20;1.00;;;;;;;11.88;40.96;101293.29;116973;1185;23676;-58
2022/09/07 02:10:19;;;;;;;3.90;1.30;;;;;;;11.76;40.75;101289.44;116941;1189;23355;-66
2022/09/07 02:13:05;;;;;;;1.40;0.90;;;;;;;11.66;40.96;101286.83;117126;1188;23506;-66
2022/09/07 02:15:43;;;;;;;2.50;1.30;;;;;;;11.58;41.20;101291.60;117051;1187;22925;-58
2022/09/07 02:18:12;;;;;;;5.20;1.20;;;;;;;11.49;41.31;101290.55;116914;1189;21991;-56
2022/09/07 02:20:43;;;;;;;3.00;1.00;;;;;;;11.44;41.52;101287.23;117149;1184;21842;-58
2022/09/07 02:23:13;;;;;;;3.00;1.00;;;;;;;11.40;41.41;101287.58;117138;1186;21845;-58
2022/09/07 02:25:53;;;;;;;2.20;1.20;;;;;;;11.34;41.63;101283.01;117170;1186;24183;-59
2022/09/07 02:28:28;;;;;;;1.50;1.00;;;;;;;11.28;41.83;101289.52;117124;1188;24236;-58
2022/09/07 02:30:55;;;;;;;3.30;1.20;;;;;;;11.21;41.66;101288.30;116869;1189;22930;-58
2022/09/07 02:33:22;;;;;;;2.90;1.10;;;;;;;11.15;41.84;101285.14;117304;1184;21858;-65
2022/09/07 02:35:49;;;;;;;2.30;1.10;;;;;;;11.10;42.05;101289.70;116922;1189;24165;-58
2022/09/07 02:38:17;;;;;;;3.10;1.10;;;;;;;11.07;42.08;101287.59;117043;1183;22990;-66
2022/09/07 02:40:55;;;;;;;2.80;1.10;;;;;;;11.02;42.07;101287.24;117170;1186;24227;-59
2022/09/07 02:43:22;;;;;;;2.30;1.40;;;;;;;10.97;42.19;101293.91;117025;1184;22929;-63
2022/09/07 02:45:52;;;;;;;5.10;1.40;;;;;;;10.93;42.51;101293.20;117032;1184;23456;-58
2022/09/07 02:48:22;;;;;;;2.00;1.20;;;;;;;10.90;42.56;101288.99;117107;1187;22975;-59
2022/09/07 02:51:18;;;;;;;4.30;1.40;;;;;;;10.85;42.56;101286.86;117147;1186;22906;-64
2022/09/07 02:54:11;;;;;;;4.10;1.30;;;;;;;10.83;42.67;101290.02;117053;1188;21848;-64
2022/09/07 02:57:06;;;;;;;1.70;1.10;;;;;;;10.81;42.77;101285.30;116930;1185;22922;-58
2022/09/07 02:59:52;;;;;;;4.90;1.70;;;;;;;10.80;42.80;101290.21;116976;1186;22112;-64
2022/09/07 03:02:34;;;;;;;4.20;1.20;;;;;;;10.75;42.72;101286.52;116956;1188;23069;-61
2022/09/07 03:05:04;;;;;;;2.10;1.00;;;;;;;10.74;42.82;101287.21;116957;1187;21854;-62
2022/09/07 03:07:39;;;;;;;5.20;1.30;;;;;;;10.73;42.89;101288.09;116988;1186;24175;-56
2022/09/07 03:10:10;;;;;;;2.00;1.00;;;;;;;10.74;42.87;101290.38;117148;1186;21852;-62
2022/09/07 03:12:45;;;;;;;2.40;1.20;;;;;;;10.74;42.82;101289.50;117004;1189;23651;-62
2022/09/07 03:15:14;;;;;;;3.30;1.10;;;;;;;10.72;42.82;101289.85;117148;1190;22094;-56
2022/09/07 03:17:41;;;;;;;23.00;2.00;;;;;;;10.70;42.99;101290.19;117274;1186;21881;-62
2022/09/07 03:20:08;;;;;;;9.20;1.60;;;;;;;10.68;42.96;101291.94;117174;1183;21843;-56
2022/09/07 03:22:35;;;;;;;5.10;1.60;;;;;;;10.65;42.99;101291.40;117130;1186;21861;-55
2022/09/07 03:25:03;;;;;;;4.90;1.20;;;;;;;10.64;42.98;101292.63;117280;1183;23475;-61
2022/09/07 03:27:31;;;;;;;4.30;1.40;;;;;;;10.65;42.88;101290.52;117326;1185;23635;-62
2022/09/07 03:29:58;;;;;;;5.40;1.40;;;;;;;10.69;43.06;101294.76;117285;1185;22925;-56
2022/09/07 03:32:30;;;;;;;4.60;1.60;;;;;;;10.70;43.03;101299.15;117214;1186;21873;-56
2022/09/07 03:34:58;;;;;;;5.50;1.70;;;;;;;10.72;42.95;101297.39;116944;1189;23487;-60
2022/09/07 03:37:25;;;;;;;10.90;1.40;;;;;;;10.74;42.98;101301.97;117059;1186;21893;-61
2022/09/07 03:39:54;;;;;;;3.50;1.50;;;;;;;10.74;42.97;101302.14;117169;1186;22722;-56
2022/09/07 03:42:21;;;;;;;3.50;1.10;;;;;;;10.73;42.98;101306.52;117262;1186;22151;-61
2022/09/07 03:44:49;;;;;;;10.00;1.90;;;;;;;10.70;43.00;101303.19;117350;1186;21882;-61
2022/09/07 03:47:16;;;;;;;5.40;1.20;;;;;;;10.70;43.09;101302.11;117257;1185;23487;-56
2022/09/07 03:49:43;;;;;;;15.10;2.20;;;;;;;10.71;43.09;101305.46;117199;1188;21859;-56
2022/09/07 03:52:10;;;;;;;17.90;2.70;;;;;;;10.69;43.11;101302.30;117269;1182;23550;-55
2022/09/07 03:54:38;;;;;;;14.60;2.10;;;;;;;10.69;43.11;101305.29;117329;1186;22962;-56
2022/09/07 03:57:05;;;;;;;11.70;2.60;;;;;;;10.68;43.07;101303.35;118245;1181;21847;-61
2022/09/07 03:59:32;;;;;;;10.30;2.60;;;;;;;10.69;43.16;101305.81;117307;1186;22682;-56
2022/09/07 04:02:00;;;;;;;22.50;3.20;;;;;;;10.72;43.41;101308.09;117253;1186;21885;-56
2022/09/07 04:04:27;;;;;;;5.70;1.80;;;;;;;10.75;43.42;101309.33;117330;1186;22918;-57
2022/09/07 04:06:54;;;;;;;17.50;2.80;;;;;;;10.79;43.52;101306.89;117110;1183;23502;-61
2022/09/07 04:09:22;;;;;;;12.90;2.60;;;;;;;10.84;43.46;101309.86;117900;1186;21860;-61
2022/09/07 04:11:49;;;;;;;15.30;2.80;;;;;;;10.91;43.54;101307.60;117279;1185;22937;-56
2022/09/07 04:14:16;;;;;;;9.30;1.70;;;;;;;11.00;43.45;101308.67;117300;1182;23551;-56
2022/09/07 04:16:44;;;;;;;6.40;1.80;;;;;;;11.11;43.46;101310.79;117243;1182;23444;-61
2022/09/07 04:19:11;;;;;;;15.60;2.00;;;;;;;11.20;43.61;101313.42;117135;1188;22940;-60
2022/09/07 04:21:38;;;;;;;7.10;2.40;;;;;;;11.28;43.71;101311.66;117078;1185;23652;-56
2022/09/07 04:24:06;;;;;;;10.80;1.70;;;;;;;11.38;43.65;101313.24;117287;1186;22920;-61
2022/09/07 04:26:35;;;;;;;10.60;3.20;;;;;;;11.50;43.58;101311.98;117224;1186;22932;-56
2022/09/07 04:29:02;;;;;;;12.30;2.60;;;;;;;11.62;43.70;101304.41;116837;1186;24245;-57
2022/09/07 04:31:30;;;;;;;9.90;2.30;;;;;;;11.77;44.14;101304.91;117146;1182;23417;-57
2022/09/07 04:33:57;;;;;;;16.50;2.30;;;;;;;11.98;44.21;101302.77;117107;1183;22857;-63
2022/09/07 04:36:25;;;;;;;7.60;2.00;;;;;;;12.20;44.32;101304.46;117118;1188;22166;-62
2022/09/07 04:38:58;;;;;;;4.90;1.60;;;;;;;12.41;44.42;101304.36;117125;1183;23554;-63
2022/09/07 04:41:26;;;;;;;12.00;1.80;;;;;;;12.62;44.09;101304.23;117091;1189;23654;-62
2022/09/07 04:43:55;;;;;;;8.20;2.10;;;;;;;12.81;44.04;101306.05;117089;1186;22622;-57
2022/09/07 04:46:25;;;;;;;10.70;2.10;;;;;;;13.00;44.04;101308.75;117122;1188;21835;-57
2022/09/07 04:48:57;;;;;;;9.00;1.90;;;;;;;13.20;43.95;101305.77;117142;1190;21868;-63
2022/09/07 04:51:26;;;;;;;6.60;1.50;;;;;;;13.41;43.94;101306.66;117025;1186;21859;-63
2022/09/07 04:53:54;;;;;;;6.40;1.60;;;;;;;13.58;43.88;101302.63;117067;1182;23547;-57
2022/09/07 04:56:22;;;;;;;7.90;1.20;;;;;;;13.76;43.62;101299.98;117150;1184;22917;-57
2022/09/07 04:58:49;;;;;;;15.00;2.90;;;;;;;13.92;43.53;101296.27;117085;1186;24160;-64
2022/09/07 05:01:18;;;;;;;13.60;4.10;;;;;;;14.10;43.29;101290.06;117044;1186;23461;-60
2022/09/07 05:03:45;;;;;;;6.00;2.70;;;;;;;14.29;43.35;101291.23;117379;1186;21845;-63
2022/09/07 05:06:13;;;;;;;15.80;5.00;;;;;;;14.48;43.28;101292.74;118984;1184;21818;-58
2022/09/07 05:08:42;;;;;;;11.90;2.20;;;;;;;14.70;43.21;101294.05;117599;1186;21979;-58
2022/09/07 05:11:09;;;;;;;8.80;2.00;;;;;;;14.88;42.98;101295.71;117336;1186;22614;-57
2022/09/07 05:13:37;;;;;;;7.00;1.60;;;;;;;15.07;42.84;101291.71;117131;1187;21857;-64
2022/09/07 05:16:09;;;;;;;7.40;1.50;;;;;;;15.24;42.64;101295.14;116998;1186;22926;-57
2022/09/07 05:18:36;;;;;;;8.90;1.90;;;;;;;15.43;42.53;101292.34;117100;1184;22090;-62
2022/09/07 05:21:14;;;;;;;9.10;1.80;;;;;;;15.60;42.71;101290.79;116886;1186;21988;-57
2022/09/07 05:23:41;;;;;;;11.50;3.10;;;;;;;15.83;42.46;101292.32;117085;1186;23688;-57
2022/09/07 05:26:09;;;;;;;5.70;1.60;;;;;;;16.05;42.40;101288.52;116956;1187;21856;-57
2022/09/07 05:28:36;;;;;;;5.10;1.30;;;;;;;16.26;42.26;101288.63;117122;1183;22932;-57
2022/09/07 05:31:08;;;;;;;9.30;1.40;;;;;;;16.43;41.92;101286.13;116998;1187;23654;-57
2022/09/07 05:33:51;;;;;;;8.20;2.20;;;;;;;16.61;41.97;101284.30;117116;1186;21965;-63
2022/09/07 05:36:38;;;;;;;7.70;1.60;;;;;;;16.83;42.01;101280.42;117116;1186;22935;-57
2022/09/07 05:39:05;;;;;;;7.60;2.00;;;;;;;17.03;41.70;101280.16;117074;1183;22929;-63
2022/09/07 05:41:32;;;;;;;3.10;1.20;;;;;;;17.23;41.68;101283.21;117114;1188;21859;-63
2022/09/07 05:43:59;;;;;;;3.60;1.30;;;;;;;17.44;41.41;101283.73;116964;1183;23634;-58
2022/09/07 05:46:46;;;;;;;6.80;1.50;;;;;;;17.66;41.19;101288.27;116939;1186;21856;-58
2022/09/07 05:49:13;;;;;;;5.60;1.40;;;;;;;17.86;40.97;101289.16;117030;1188;21861;-64
2022/09/07 05:51:40;;;;;;;17.00;1.60;;;;;;;18.02;40.92;101288.38;117022;1188;21862;-57
2022/09/07 05:54:07;;;;;;;6.60;1.30;;;;;;;18.20;40.63;101292.31;117004;1184;21858;-57
2022/09/07 05:56:34;;;;;;;15.60;1.90;;;;;;;18.35;40.48;101293.65;117150;1186;22897;-57
2022/09/07 05:59:02;;;;;;;4.50;1.50;;;;;;;18.54;40.56;101292.89;116956;1182;22923;-57
2022/09/07 06:01:29;;;;;;;5.20;1.50;;;;;;;18.74;40.57;101295.10;117281;1188;21840;-64
2022/09/07 06:03:57;;;;;;;12.40;1.60;;;;;;;18.94;40.26;101297.83;117174;1186;21861;-58
2022/09/07 06:06:25;;;;;;;2.80;1.00;;;;;;;19.11;39.60;101301.21;117231;1183;23481;-59
2022/09/07 06:08:52;;;;;;;3.20;1.10;;;;;;;19.28;39.26;101297.80;117134;1186;22636;-58
2022/09/07 06:11:21;;;;;;;3.10;1.10;;;;;;;19.47;39.38;101294.46;117100;1187;21855;-58
2022/09/07 06:13:47;;;;;;;5.90;1.20;;;;;;;19.70;39.25;101292.43;119261;1184;21868;-65
2022/09/07 06:16:17;;;;;;;3.10;0.90;;;;;;;19.90;38.92;101295.11;118181;1188;22929;-58
2022/09/07 06:18:45;;;;;;;3.30;1.10;;;;;;;20.13;38.59;101293.75;116850;1184;23544;-64
2022/09/07 06:21:13;;;;;;;4.10;1.10;;;;;;;20.32;38.55;101292.14;118123;1186;22949;-65
2022/09/07 06:23:42;;;;;;;3.00;1.30;;;;;;;20.52;38.29;101289.57;119355;1186;21780;-65
2022/09/07 06:26:09;;;;;;;2.60;0.90;;;;;;;20.73;38.08;101287.85;117276;1186;21857;-58
2022/09/07 06:28:38;;;;;;;3.20;0.90;;;;;;;20.93;37.81;101288.32;118900;1186;21863;-65
2022/09/07 06:31:13;;;;;;;2.20;0.70;;;;;;;21.14;37.55;101289.77;117303;1182;23556;-65
2022/09/07 06:33:42;;;;;;;3.70;0.80;;;;;;;21.32;36.97;101288.47;117063;1186;23553;-65
2022/09/07 06:36:13;;;;;;;3.00;0.80;;;;;;;21.45;36.83;101289.36;116977;1186;23451;-60
2022/09/07 06:38:41;;;;;;;3.70;1.00;;;;;;;21.63;36.61;101288.23;117160;1188;22333;-65
2022/09/07 06:41:18;;;;;;;2.60;1.00;;;;;;;21.83;36.59;101284.67;117032;1186;22937;-60
2022/09/07 06:44:06;;;;;;;3.10;0.70;;;;;;;22.07;35.74;101285.71;117062;1186;23264;-65
2022/09/07 06:46:33;;;;;;;2.80;0.80;;;;;;;22.22;35.00;101285.06;117034;1187;22811;-59
2022/09/07 06:49:22;;;;;;;1.30;0.70;;;;;;;22.29;33.48;101288.48;117195;1185;22719;-60
2022/09/07 06:51:49;;;;;;;2.60;0.80;;;;;;;22.27;33.72;101290.55;117003;1187;21859;-60
2022/09/07 06:54:17;;;;;;;4.90;1.10;;;;;;;22.31;34.44;101293.40;117107;1183;23557;-59
2022/09/07 06:57:07;;;;;;;1.70;0.90;;;;;;;22.52;34.72;101293.87;117030;1186;22852;-66
2022/09/07 06:59:35;;;;;;;3.30;0.90;;;;;;;22.75;34.21;101296.31;117223;1187;21858;-67
2022/09/07 07:02:04;;;;;;;1.60;0.80;;;;;;;22.83;31.57;101297.54;117160;1183;22535;-66
2022/09/07 07:04:32;;;;;;;2.50;0.60;;;;;;;22.80;33.05;101294.67;117228;1188;21842;-65
2022/09/07 07:07:11;;;;;;;1.40;0.70;;;;;;;22.95;33.78;101296.59;116992;1188;23192;-65
2022/09/07 07:09:38;;;;;;;1.50;1.00;;;;;;;23.17;32.45;101296.41;116872;1188;21967;-60
2022/09/07 07:12:06;;;;;;;2.60;0.90;;;;;;;23.17;31.67;101301.27;117079;1182;23649;-65
2022/09/07 07:14:34;;;;;;;1.90;1.10;;;;;;;23.18;32.34;101300.48;116916;1185;23451;-65
2022/09/07 07:17:06;;;;;;;4.30;1.40;;;;;;;23.25;31.83;101301.77;117175;1185;21851;-59
2022/09/07 07:19:34;;;;;;;2.30;0.90;;;;;;;23.26;32.21;101307.45;117251;1183;23381;-67
2022/09/07 07:22:01;;;;;;;3.30;1.00;;;;;;;23.43;32.84;101306.94;117035;1186;22918;-59
2022/09/07 07:24:48;;;;;;;3.90;1.10;;;;;;;23.78;32.87;101309.55;117037;1187;22941;-67
2022/09/07 07:27:16;;;;;;;3.70;1.00;;;;;;;24.11;32.40;101309.64;118267;1185;24158;-67
2022/09/07 07:29:44;;;;;;;1.90;0.90;;;;;;;24.39;31.76;101306.86;117136;1187;22097;-68
2022/09/07 07:32:11;;;;;;;2.50;1.00;;;;;;;24.63;32.18;101302.87;117199;1188;23647;-67
2022/09/07 07:34:38;;;;;;;2.00;0.80;;;;;;;24.87;32.16;101303.31;117187;1186;23541;-60
2022/09/07 07:37:05;;;;;;;1.80;0.80;;;;;;;25.14;31.93;101304.61;117180;1184;22922;-67
2022/09/07 07:39:32;;;;;;;1.90;1.00;;;;;;;25.38;31.00;101301.02;117318;1183;22818;-67
2022/09/07 07:42:19;;;;;;;4.50;1.40;;;;;;;25.63;31.39;101298.11;117017;1187;21857;-59
2022/09/07 07:44:47;;;;;;;2.40;1.10;;;;;;;25.86;31.40;101297.93;117326;1185;21875;-58
2022/09/07 07:47:14;;;;;;;5.00;1.10;;;;;;;26.08;31.16;101298.75;117228;1186;21844;-60
2022/09/07 07:49:41;;;;;;;5.90;0.90;;;;;;;26.14;29.17;101293.56;117219;1182;22370;-60
2022/09/07 07:52:08;;;;;;;2.80;1.20;;;;;;;25.95;28.53;101292.35;117186;1182;22897;-67
2022/09/07 07:54:55;;;;;;;3.70;1.30;;;;;;;25.67;29.37;101289.98;117099;1184;22646;-67
2022/09/07 07:57:22;;;;;;;4.10;1.20;;;;;;;25.73;30.23;101286.70;117316;1182;21857;-67
2022/09/07 07:59:50;;;;;;;3.60;1.30;;;;;;;25.94;29.53;101285.93;116894;1188;21851;-60
2022/09/07 08:02:19;;;;;;;1.70;1.00;;;;;;;26.11;29.58;101280.98;116980;1189;21872;-66
2022/09/07 08:04:46;;;;;;;1.40;0.90;;;;;;;26.27;29.25;101282.27;117157;1186;22223;-60
2022/09/07 08:07:15;;;;;;;2.10;1.10;;;;;;;26.38;28.31;101282.67;116946;1187;22404;-67
2022/09/07 08:09:46;;;;;;;2.00;1.10;;;;;;;26.29;27.56;101281.41;116955;1188;21875;-67
2022/09/07 08:12:15;;;;;;;3.40;1.30;;;;;;;26.07;26.71;101282.05;116900;1187;23377;-67
2022/09/07 08:14:42;;;;;;;2.20;1.00;;;;;;;25.92;26.79;101282.11;117105;1183;21858;-68
2022/09/07 08:17:11;;;;;;;3.00;1.20;;;;;;;25.84;27.28;101284.39;117122;1189;24149;-68
2022/09/07 08:19:38;;;;;;;4.10;1.30;;;;;;;25.92;27.97;101285.36;116925;1189;22510;-60
2022/09/07 08:22:05;;;;;;;2.30;1.00;;;;;;;26.09;27.15;101284.48;116941;1182;22921;-66
2022/09/07 08:24:32;;;;;;;3.20;1.30;;;;;;;26.19;27.05;101282.80;116882;1186;21960;-59
2022/09/07 08:27:00;;;;;;;6.20;2.30;;;;;;;26.21;26.76;101283.21;117135;1182;22973;-65
2022/09/07 08:29:27;;;;;;;3.10;1.20;;;;;;;26.14;27.11;101280.79;116943;1185;24214;-66
2022/09/07 08:32:00;;;;;;;4.40;1.60;;;;;;;26.28;28.02;101278.04;117060;1183;21981;-65
2022/09/07 08:34:45;;;;;;;8.70;1.40;;;;;;;26.75;28.38;101273.95;116990;1179;21926;-58
2022/09/07 08:37:14;;;;;;;8.20;2.10;;;;;;;27.21;28.08;101269.65;116847;1186;22931;-59
2022/09/07 08:39:41;;;;;;;3.00;1.30;;;;;;;27.60;27.80;101263.89;116921;1186;21858;-67
2022/09/07 08:43:04;;;;;;;3.70;1.20;;;;;;;27.90;27.69;101257.83;117019;1189;22112;-65
2022/09/07 08:45:33;;;;;;;6.30;1.20;;;;;;;28.26;27.56;101251.48;117121;1188;21898;-65
2022/09/07 08:48:03;;;;;;;4.40;1.20;;;;;;;28.54;27.60;101246.16;117002;1189;22625;-66
2022/09/07 08:50:33;;;;;;;6.00;2.10;;;;;;;28.63;25.79;101242.31;117013;1188;22919;-59
2022/09/07 08:53:20;;;;;;;4.40;1.50;;;;;;;28.51;26.84;101240.08;117954;1187;21859;-58
2022/09/07 08:55:57;;;;;;;6.10;1.20;;;;;;;28.67;27.31;101238.20;117120;1188;23582;-60
2022/09/07 08:58:44;;;;;;;4.00;1.40;;;;;;;29.01;27.21;101239.80;117007;1184;21864;-67
2022/09/07 09:01:20;;;;;;;3.40;1.50;;;;;;;29.08;25.46;101233.27;117196;1186;22930;-65
2022/09/07 09:04:05;;;;;;;2.30;1.00;;;;;;;28.93;25.85;101234.47;117156;1186;23533;-59
2022/09/07 09:07:07;;;;;;;4.60;1.50;;;;;;;29.00;26.04;101230.11;117134;1186;23025;-64
2022/09/07 09:09:37;;;;;;;4.40;1.10;;;;;;;29.12;26.59;101226.14;117041;1186;21856;-59
2022/09/07 09:12:28;;;;;;;3.10;1.50;;;;;;;29.36;26.58;101227.51;117044;1187;23825;-67
2022/09/07 09:15:19;;;;;;;11.30;1.40;;;;;;;29.67;26.44;101229.30;117091;1183;21864;-66
2022/09/07 09:17:55;;;;;;;2.00;1.30;;;;;;;30.00;24.78;101227.21;116907;1186;23575;-67
2022/09/07 09:20:48;;;;;;;2.30;1.40;;;;;;;29.82;24.05;101222.81;117085;1185;21859;-63
2022/09/07 09:23:16;;;;;;;3.00;1.50;;;;;;;29.19;25.03;101218.55;117177;1186;23652;-59
2022/09/07 09:25:50;;;;;;;3.00;1.50;;;;;;;28.89;25.65;101216.84;117257;1186;21860;-68
2022/09/07 09:28:18;;;;;;;3.90;1.30;;;;;;;28.97;26.05;101212.43;117081;1185;23674;-59
2022/09/07 09:30:46;;;;;;;4.90;2.00;;;;;;;29.19;25.89;101205.70;116917;1186;22965;-68
2022/09/07 09:33:27;;;;;;;3.90;1.30;;;;;;;29.46;26.04;101200.71;116990;1187;22171;-67
2022/09/07 09:35:55;;;;;;;;;;;;;;;29.75;25.57;101195.13;117237;1183;21853;-67
2022/09/07 09:38:27;;;;;;;3.00;1.60;;;;;;;29.82;24.21;101195.36;117232;1183;23565;-60
2022/09/07 09:40:56;;;;;;;2.40;1.40;;;;;;;29.59;24.33;101198.45;116991;1189;21861;-69
2022/09/07 09:43:24;;;;;;;2.20;1.40;;;;;;;29.47;25.12;101195.27;117150;1182;23545;-69
2022/09/07 09:45:53;;;;;;;2.00;1.20;;;;;;;29.59;25.18;101196.63;117182;1182;22903;-60
2022/09/07 09:48:40;;;;;;;5.30;1.90;;;;;;;29.82;25.57;101196.20;117103;1187;21905;-68
2022/09/07 09:51:07;;;;;;;2.10;1.20;;;;;;;30.21;25.83;101196.67;117011;1189;22927;-68
2022/09/07 09:54:21;;;;;;;5.70;1.60;;;;;;;30.73;25.64;101201.23;117155;1186;21855;-68
2022/09/07 09:56:48;;;;;;;6.20;1.50;;;;;;;31.09;25.10;101201.70;117213;1187;22999;-69
2022/09/07 09:59:15;;;;;;;3.80;1.40;;;;;;;31.23;25.22;101199.20;117038;1186;21847;-68
2022/09/07 10:02:32;;;;;;;5.50;1.60;;;;;;;31.48;24.17;101195.25;117090;1185;22195;-69
2022/09/07 10:05:26;;;;;;;4.40;1.90;;;;;;;30.88;23.29;101191.73;117136;1186;22135;-69
2022/09/07 10:07:55;;;;;;;3.70;1.30;;;;;;;30.36;24.23;101195.17;117077;1185;23595;-70
2022/09/07 10:10:25;;;;;;;6.40;1.50;;;;;;;30.40;24.95;101194.02;117121;1186;22061;-69
2022/09/07 10:12:54;;;;;;;3.80;1.20;;;;;;;30.65;24.99;101192.70;117240;1186;22157;-60
2022/09/07 10:15:35;;;;;;;4.30;1.70;;;;;;;30.83;24.95;101191.60;117225;1183;22926;-60
2022/09/07 10:18:17;;;;;;;3.80;1.30;;;;;;;30.83;24.86;101188.11;117057;1188;23380;-68
2022/09/07 10:20:45;;;;;;;3.60;1.60;;;;;;;30.70;24.91;101180.71;117040;1187;22928;-69
2022/09/07 10:23:21;;;;;;;7.50;1.20;;;;;;;30.59;24.96;101173.31;116860;1186;23643;-61
2022/09/07 10:25:49;;;;;;;8.00;1.50;;;;;;;30.61;24.95;101174.24;117156;1188;21850;-68
2022/09/07 10:28:17;;;;;;;2.80;1.30;;;;;;;30.76;24.99;101170.07;117176;1186;22615;-61
2022/09/07 10:31:12;;;;;;;3.60;1.50;;;;;;;30.95;24.96;101167.38;117200;1187;21859;-68
2022/09/07 10:33:50;;;;;;;5.10;1.50;;;;;;;31.14;24.90;101163.92;117156;1187;21912;-61
2022/09/07 10:36:50;;;;;;;4.60;1.60;;;;;;;31.17;23.77;101163.33;116878;1188;23650;-61
2022/09/07 10:39:20;;;;;;;;;;;;;;;30.82;23.26;101168.30;116995;1182;23561;-60
2022/09/07 10:41:56;;;;;;;3.30;1.50;;;;;;;30.57;23.83;101166.91;117120;1182;23102;-61
2022/09/07 10:44:30;;;;;;;2.50;1.50;;;;;;;30.58;23.39;101167.95;117263;1186;23683;-68
2022/09/07 10:47:52;;;;;;;7.30;1.60;;;;;;;30.44;23.70;101164.98;117034;1186;23599;-60
2022/09/07 10:50:42;;;;;;;5.30;2.70;;;;;;;30.36;24.25;101156.71;116674;1191;22436;-67
2022/09/07 10:53:33;;;;;;;5.20;1.50;;;;;;;30.64;24.35;101157.87;116655;1189;23582;-68
2022/09/07 10:56:17;;;;;;;3.90;1.90;;;;;;;31.07;24.58;101152.55;116933;1188;22139;-68
2022/09/07 10:59:19;;;;;;;4.90;1.40;;;;;;;31.51;24.35;101143.42;117139;1186;24890;-68
2022/09/07 11:01:52;;;;;;;8.40;1.60;;;;;;;31.92;24.41;101145.79;117180;1186;23041;-69
2022/09/07 11:04:54;;;;;;;5.20;2.20;;;;;;;32.28;23.98;101140.90;117239;1179;23057;-68
2022/09/07 11:07:42;;;;;;;2.90;1.50;;;;;;;32.54;23.40;101141.63;117136;1186;21895;-60
2022/09/07 11:10:39;;;;;;;6.00;1.70;;;;;;;32.46;23.37;101137.08;117128;1186;23579;-60
2022/09/07 11:13:29;;;;;;;5.00;1.50;;;;;;;32.23;23.71;101136.08;117223;1179;22857;-61
2022/09/07 11:15:57;;;;;;;;;;;;;;;32.31;23.65;101136.08;117136;1182;22070;-61
2022/09/07 11:18:39;;;;;;;6.00;1.80;;;;;;;32.57;23.34;101129.71;117034;1187;21887;-69
2022/09/07 11:21:11;;;;;;;6.50;1.70;;;;;;;32.73;22.86;101124.05;117202;1186;24161;-70
2022/09/07 11:24:01;;;;;;;4.70;1.70;;;;;;;32.71;23.30;101116.91;117136;1187;23481;-70
2022/09/07 11:26:49;;;;;;;5.60;1.70;;;;;;;32.97;23.38;101116.67;117120;1182;22943;-70
2022/09/07 11:29:21;;;;;;;4.90;2.00;;;;;;;33.23;22.93;101111.98;116835;1189;21980;-71
2022/09/07 11:32:01;;;;;;;4.10;1.70;;;;;;;33.32;23.37;101110.02;117092;1187;21858;-71
2022/09/07 11:34:32;;;;;;;3.20;1.70;;;;;;;33.46;23.39;101103.05;117134;1183;23557;-70
2022/09/07 11:37:02;;;;;;;5.20;1.80;;;;;;;33.62;22.98;101096.94;116919;1186;22630;-70
2022/09/07 11:39:34;;;;;;;5.10;1.50;;;;;;;33.70;23.09;101092.41;117052;1189;21838;-59
2022/09/07 11:42:19;;;;;;;5.90;1.60;;;;;;;33.78;23.26;101091.38;117283;1188;22982;-70
2022/09/07 11:45:19;;;;;;;4.40;1.50;;;;;;;33.89;22.28;101084.61;117251;1186;21855;-61
2022/09/07 11:48:15;;;;;;;3.60;1.60;;;;;;;33.75;22.42;101087.17;117101;1186;21866;-61